Time;durP1;ratioP1;P1;durP2;ratioP2;P2;SDS_P1;SDS_P2;PMS_P1;PMS_P2;Temp;Humidity;BMP_temperature;BMP_pressure;BME280_temperature;BME280_humidity;BME280_pressure;Samples;Min_cycle;Max_cycle;Signal;HPM_P1;HPM_P2
2023/09/22 00:01:56;;;;;;;11.80;5.30;;;;;;;17.86;62.00;99748.30;79514;1296;3013692;-78
2023/09/22 00:04:23;;;;;;;12.30;5.60;;;;;;;17.85;62.28;99746.50;79571;1295;3011415;-76
2023/09/22 00:06:51;;;;;;;12.80;5.60;;;;;;;17.86;62.09;99746.23;78328;1301;3052298;-74
2023/09/22 00:09:18;;;;;;;7.00;5.50;;;;;;;17.86;62.23;99741.11;79500;1296;3019233;-74
2023/09/22 00:11:44;;;;;;;7.90;5.60;;;;;;;17.88;61.71;99743.53;79594;1295;3011938;-75
2023/09/22 00:14:13;;;;;;;9.70;5.40;;;;;;;17.90;61.58;99742.66;78290;1295;3027502;-78
2023/09/22 00:16:39;;;;;;;8.50;4.90;;;;;;;17.90;61.66;99743.05;79461;1298;3015099;-74
2023/09/22 00:19:07;;;;;;;12.60;5.40;;;;;;;17.89;61.55;99744.92;79623;1295;3011934;-76
2023/09/22 00:21:35;;;;;;;13.90;5.40;;;;;;;17.84;62.03;99744.95;78287;1299;3053135;-75
2023/09/22 00:24:02;;;;;;;13.80;5.80;;;;;;;17.80;62.02;99743.39;79542;1301;3013567;-75
2023/09/22 00:26:29;;;;;;;9.20;5.50;;;;;;;17.77;61.61;99746.22;79390;1295;3011495;-77
2023/09/22 00:28:58;;;;;;;12.10;6.30;;;;;;;17.76;61.71;99744.38;78338;1300;3049520;-75
2023/09/22 00:31:25;;;;;;;10.10;6.10;;;;;;;17.73;61.96;99750.71;79687;1295;3013840;-76
2023/09/22 00:33:52;;;;;;;8.70;5.30;;;;;;;17.70;61.99;99749.35;79676;1295;3011650;-71
2023/09/22 00:36:20;;;;;;;14.60;6.60;;;;;;;17.66;62.48;99757.70;78335;1298;3052030;-73
2023/09/22 00:38:46;;;;;;;12.10;5.80;;;;;;;17.62;62.48;99753.23;79501;1295;3013989;-75
2023/09/22 00:41:12;;;;;;;19.70;6.30;;;;;;;17.60;62.54;99753.35;79400;1296;3013706;-78
2023/09/22 00:43:40;;;;;;;12.60;6.60;;;;;;;17.59;62.10;99752.60;78319;1297;3026037;-74
2023/09/22 00:46:07;;;;;;;10.70;6.10;;;;;;;17.57;62.50;99753.54;79566;1295;3013269;-74
2023/09/22 00:48:34;;;;;;;8.70;6.00;;;;;;;17.54;61.99;99753.89;79414;1298;3011890;-76
2023/09/22 00:51:02;;;;;;;14.50;6.60;;;;;;;17.55;62.18;99749.98;78372;1300;3025842;-73
2023/09/22 00:53:31;;;;;;;12.90;6.40;;;;;;;17.50;62.55;99749.32;79540;1300;3013417;-75
2023/09/22 00:55:58;;;;;;;19.20;6.70;;;;;;;17.48;62.36;99747.00;79642;1300;3011794;-72
2023/09/22 00:58:25;;;;;;;18.80;6.20;;;;;;;17.43;62.38;99749.39;78518;1295;3048081;-75
2023/09/22 01:00:53;;;;;;;14.00;5.70;;;;;;;17.43;62.26;99749.87;79724;1301;3012946;-74
2023/09/22 01:03:20;;;;;;;13.00;6.30;;;;;;;17.41;62.50;99750.38;79586;1295;3011397;-72
2023/09/22 01:05:51;;;;;;;14.50;6.30;;;;;;;17.42;62.16;99753.55;78326;1301;3052612;-75
2023/09/22 01:08:18;;;;;;;11.70;6.60;;;;;;;17.39;62.19;99751.63;79676;1296;3011359;-76
2023/09/22 01:10:47;;;;;;;13.30;6.40;;;;;;;17.39;62.06;99751.80;78357;1300;3050462;-74
2023/09/22 01:13:14;;;;;;;12.00;6.50;;;;;;;17.38;61.96;99749.73;79562;1295;3019208;-77
2023/09/22 01:15:42;;;;;;;11.00;6.20;;;;;;;17.37;62.27;99749.69;79459;1295;3013100;-73
2023/09/22 01:18:13;;;;;;;9.90;5.90;;;;;;;17.35;61.92;99751.48;78297;1295;3051297;-73
2023/09/22 01:20:42;;;;;;;13.30;5.70;;;;;;;17.34;62.38;99755.44;79531;1295;3013182;-74
2023/09/22 01:23:12;;;;;;;11.60;6.00;;;;;;;17.31;62.32;99752.36;78313;1295;3025915;-75
2023/09/22 01:25:43;;;;;;;13.30;5.50;;;;;;;17.29;62.34;99755.14;79672;1300;3011591;-76
2023/09/22 01:28:11;;;;;;;11.70;5.60;;;;;;;17.26;62.59;99753.60;78321;1295;3050563;-72
2023/09/22 01:30:42;;;;;;;17.90;6.80;;;;;;;17.25;62.47;99756.02;79516;1295;3013205;-74
2023/09/22 01:33:10;;;;;;;24.80;6.90;;;;;;;17.22;62.71;99757.50;78430;1295;3053156;-73
2023/09/22 01:35:37;;;;;;;11.20;6.30;;;;;;;17.19;62.51;99757.88;79622;1301;3012989;-75
2023/09/22 01:38:14;;;;;;;14.20;7.10;;;;;;;17.17;62.93;99757.23;79667;1295;3011827;-76
2023/09/22 01:40:42;;;;;;;12.30;6.80;;;;;;;17.13;63.36;99762.69;78336;1300;3068379;-77
2023/09/22 01:43:09;;;;;;;13.40;6.50;;;;;;;17.09;63.49;99765.80;79513;1295;3013954;-75
2023/09/22 01:45:35;;;;;;;13.80;6.90;;;;;;;17.05;63.63;99759.95;80070;1295;3012939;-76
2023/09/22 01:48:03;;;;;;;13.60;6.70;;;;;;;17.04;63.56;99757.58;79369;1296;3026355;-76
2023/09/22 01:50:37;;;;;;;19.80;6.70;;;;;;;17.02;63.86;99755.26;80714;1300;3012824;-78
2023/09/22 01:53:05;;;;;;;10.70;6.50;;;;;;;16.99;64.26;99751.77;79354;1295;3052331;-75
2023/09/22 01:55:38;;;;;;;23.60;7.50;;;;;;;16.99;64.10;99749.17;80696;1300;3012871;-75
2023/09/22 01:58:11;;;;;;;14.10;6.80;;;;;;;16.96;64.28;99754.70;78954;1296;3056350;-76
2023/09/22 02:00:38;;;;;;;12.20;6.70;;;;;;;16.95;64.15;99757.99;79918;1295;3013879;-76
2023/09/22 02:03:08;;;;;;;11.20;6.30;;;;;;;16.92;64.35;99763.68;78565;1295;3052155;-77
2023/09/22 02:05:35;;;;;;;11.80;6.10;;;;;;;16.91;64.48;99760.41;79702;1301;3013627;-75
2023/09/22 02:08:01;;;;;;;12.30;6.70;;;;;;;16.87;64.71;99759.98;79820;1295;3011548;-75
2023/09/22 02:10:29;;;;;;;13.10;6.90;;;;;;;16.85;64.77;99766.35;78591;1296;3068754;-76
2023/09/22 02:12:56;;;;;;;10.30;6.70;;;;;;;16.86;64.55;99765.39;80152;1295;3018146;-75
2023/09/22 02:15:23;;;;;;;13.80;6.60;;;;;;;16.88;64.29;99766.52;80631;1295;3011548;-75
2023/09/22 02:17:51;;;;;;;18.80;7.10;;;;;;;16.85;64.71;99762.23;79468;1295;3025716;-72
2023/09/22 02:20:22;;;;;;;18.80;7.10;;;;;;;16.81;64.89;99764.73;80666;1301;3013261;-71
2023/09/22 02:22:50;;;;;;;13.40;6.70;;;;;;;16.77;65.01;99764.16;78425;1299;3052200;-76
2023/09/22 02:25:17;;;;;;;10.80;7.00;;;;;;;16.73;65.42;99760.58;79580;1296;3012800;-76
2023/09/22 02:27:44;;;;;;;16.70;7.20;;;;;;;16.72;65.29;99763.69;79605;1296;3011435;-74
2023/09/22 02:30:12;;;;;;;13.70;7.90;;;;;;;16.69;65.32;99762.16;78560;1296;3048507;-73
2023/09/22 02:32:40;;;;;;;21.90;8.30;;;;;;;16.64;65.82;99759.20;79538;1298;3013631;-75
2023/09/22 02:35:07;;;;;;;20.10;8.10;;;;;;;16.60;65.71;99759.89;79539;1295;3013294;-75
2023/09/22 02:37:35;;;;;;;16.40;7.70;;;;;;;16.51;66.36;99755.11;78415;1295;3051229;-73
2023/09/22 02:40:02;;;;;;;19.60;8.00;;;;;;;16.47;66.46;99758.13;79561;1300;3011391;-74
2023/09/22 02:42:30;;;;;;;19.20;8.00;;;;;;;16.41;66.66;99761.54;79579;1295;3011904;-75
2023/09/22 02:44:57;;;;;;;17.30;8.40;;;;;;;16.36;67.16;99767.30;78401;1295;3049361;-74
2023/09/22 02:47:27;;;;;;;17.80;7.90;;;;;;;16.31;67.33;99767.55;79666;1298;3012814;-76
2023/09/22 02:49:56;;;;;;;21.30;8.10;;;;;;;16.28;67.55;99766.36;79607;1295;3011916;-75
2023/09/22 02:52:24;;;;;;;15.00;8.20;;;;;;;16.25;67.72;99770.09;78310;1298;3051155;-75
2023/09/22 02:54:54;;;;;;;17.80;8.40;;;;;;;16.24;67.66;99767.87;79609;1295;3013187;-74
2023/09/22 02:57:23;;;;;;;28.10;8.50;;;;;;;16.17;68.47;99768.47;78463;1295;3056122;-76
2023/09/22 02:59:53;;;;;;;21.80;8.80;;;;;;;16.10;68.78;99770.96;79546;1295;3012987;-74
2023/09/22 03:02:21;;;;;;;16.10;8.30;;;;;;;16.07;68.70;99769.42;78403;1295;3048946;-74
2023/09/22 03:04:49;;;;;;;19.10;9.10;;;;;;;16.04;68.88;99771.08;79780;1294;3013185;-74
2023/09/22 03:07:15;;;;;;;24.90;8.60;;;;;;;16.00;69.10;99769.45;79535;1295;3011748;-74
2023/09/22 03:09:45;;;;;;;16.20;8.70;;;;;;;15.95;69.67;99769.46;78385;1298;3050821;-73
2023/09/22 03:12:11;;;;;;;17.30;8.90;;;;;;;15.93;69.92;99773.35;79620;1296;3012883;-76
2023/09/22 03:14:38;;;;;;;13.40;5.60;;;;;;;15.89;70.15;99782.44;79962;1295;3011887;-73
2023/09/22 03:17:06;;;;;;;14.20;5.80;;;;;;;16.43;69.35;99775.20;79694;1298;3051106;-74
2023/09/22 03:19:33;;;;;;;16.40;6.40;;;;;;;17.05;67.38;99778.55;81300;1298;3012791;-73
2023/09/22 03:21:59;;;;;;;17.00;7.50;;;;;;;17.17;66.11;99779.84;80663;1295;3011547;-72
2023/09/22 03:24:29;;;;;;;14.90;7.20;;;;;;;17.08;66.48;99780.56;79384;1295;3050770;-74
2023/09/22 03:26:56;;;;;;;13.80;6.90;;;;;;;16.94;66.44;99779.97;80866;1295;3013091;-73
2023/09/22 03:29:27;;;;;;;17.80;8.00;;;;;;;16.74;67.13;99782.42;80943;1295;3011496;-77
2023/09/22 03:31:53;;;;;;;23.10;8.50;;;;;;;16.58;67.66;99781.44;79593;1301;3011913;-73
2023/09/22 03:34:21;;;;;;;21.10;9.10;;;;;;;16.43;68.26;99780.85;79479;1301;3011745;-73
2023/09/22 03:36:49;;;;;;;23.80;9.60;;;;;;;16.33;68.67;99785.73;78340;1301;3052744;-75
2023/09/22 03:39:16;;;;;;;20.20;9.00;;;;;;;16.25;68.98;99791.48;79443;1297;3011898;-73
2023/09/22 03:41:44;;;;;;;23.30;9.60;;;;;;;16.19;69.17;99793.33;79609;1295;3011381;-74
2023/09/22 03:44:12;;;;;;;30.70;10.40;;;;;;;16.10;69.63;99792.17;78292;1295;3049978;-75
2023/09/22 03:46:39;;;;;;;23.50;9.70;;;;;;;16.00;70.25;99798.20;79658;1299;3013005;-73
2023/09/22 03:49:07;;;;;;;21.40;8.90;;;;;;;15.94;70.21;99799.91;79643;1295;3012914;-75
2023/09/22 03:51:35;;;;;;;23.90;9.00;;;;;;;15.91;70.12;99805.28;78358;1296;3053118;-76
2023/09/22 03:54:02;;;;;;;25.80;9.60;;;;;;;15.87;70.46;99805.77;79535;1299;3013631;-73
2023/09/22 03:56:31;;;;;;;19.10;7.10;;;;;;;15.86;70.79;99804.27;79577;1295;3013174;-73
2023/09/22 03:58:59;;;;;;;21.10;8.10;;;;;;;16.40;69.46;99804.45;78281;1301;3050572;-75
2023/09/22 04:01:26;;;;;;;23.90;8.40;;;;;;;16.98;67.79;99807.41;79654;1300;3013068;-72
2023/09/22 04:03:52;;;;;;;18.20;8.40;;;;;;;17.11;67.30;99812.73;79601;1295;3011802;-71
2023/09/22 04:06:20;;;;;;;20.50;8.30;;;;;;;17.00;67.22;99808.69;78453;1295;3026092;-73
2023/09/22 04:08:48;;;;;;;16.10;8.10;;;;;;;16.82;67.85;99805.66;79451;1296;3013026;-71
2023/09/22 04:11:16;;;;;;;23.00;9.40;;;;;;;16.68;68.25;99810.05;79560;1294;3011571;-73
2023/09/22 04:13:44;;;;;;;17.70;9.30;;;;;;;16.52;68.79;99817.33;78270;1295;3050571;-72
2023/09/22 04:16:10;;;;;;;22.50;8.50;;;;;;;16.38;69.30;99815.06;79765;1295;3013139;-71
2023/09/22 04:18:37;;;;;;;22.70;9.70;;;;;;;16.31;69.38;99817.16;79667;1295;3011489;-71
2023/09/22 04:21:07;;;;;;;19.70;8.70;;;;;;;16.26;69.59;99815.31;78653;1299;3051230;-71
2023/09/22 04:23:36;;;;;;;21.80;9.50;;;;;;;16.22;69.66;99817.51;79676;1295;3012772;-72
2023/09/22 04:26:09;;;;;;;20.50;11.20;;;;;;;16.20;69.78;99818.45;78394;1295;3026845;-75
2023/09/22 04:28:36;;;;;;;;;;;;;;;16.14;70.03;99821.52;79475;1295;3011636;-74
2023/09/22 04:31:04;;;;;;;25.70;12.60;;;;;;;16.04;70.68;99821.91;78403;1301;3050742;-74
2023/09/22 04:33:30;;;;;;;22.40;11.70;;;;;;;16.04;70.10;99825.61;79591;1295;3012659;-72
2023/09/22 04:35:57;;;;;;;31.50;11.60;;;;;;;16.05;70.22;99822.77;79543;1299;3011753;-74
2023/09/22 04:38:25;;;;;;;19.90;8.70;;;;;;;16.10;69.85;99826.09;78474;1295;3028833;-75
2023/09/22 04:40:56;;;;;;;27.00;10.50;;;;;;;16.66;69.02;99821.13;79764;1295;3013989;-74
2023/09/22 04:43:24;;;;;;;28.40;10.00;;;;;;;17.29;67.05;99822.03;78536;1295;3057384;-76
2023/09/22 04:45:50;;;;;;;22.60;9.30;;;;;;;17.40;66.13;99825.01;79633;1295;3013800;-77
2023/09/22 04:48:17;;;;;;;23.80;8.60;;;;;;;17.37;65.99;99824.95;79600;1295;3011799;-76
2023/09/22 04:50:53;;;;;;;19.90;8.10;;;;;;;17.29;66.09;99820.26;78413;1295;3026498;-73
2023/09/22 04:53:21;;;;;;;16.20;7.80;;;;;;;17.17;66.34;99820.93;78509;1295;3052986;-74
2023/09/22 04:55:48;;;;;;;21.80;8.10;;;;;;;17.06;66.65;99822.33;79700;1300;3013428;-75
2023/09/22 04:58:16;;;;;;;27.70;7.30;;;;;;;17.02;66.50;99823.77;79577;1295;3011741;-72
2023/09/22 05:00:43;;;;;;;19.60;7.20;;;;;;;16.96;66.26;99824.55;78328;1295;3049193;-75
2023/09/22 05:03:10;;;;;;;19.60;7.90;;;;;;;16.89;66.96;99823.02;79411;1300;3019240;-76
2023/09/22 05:05:37;;;;;;;19.10;7.80;;;;;;;16.86;67.15;99828.53;79600;1295;3013436;-75
2023/09/22 05:08:05;;;;;;;20.80;7.60;;;;;;;16.80;67.63;99831.35;79193;1295;3026176;-76
2023/09/22 05:10:31;;;;;;;16.30;7.60;;;;;;;16.78;67.56;99829.71;79645;1298;3013818;-76
2023/09/22 05:12:59;;;;;;;15.40;7.80;;;;;;;16.76;67.70;99830.89;79518;1295;3011898;-77
2023/09/22 05:15:29;;;;;;;21.40;7.60;;;;;;;16.78;67.67;99834.99;78311;1295;3047716;-77
2023/09/22 05:17:56;;;;;;;18.40;7.40;;;;;;;16.80;67.43;99835.23;79484;1295;3013775;-76
2023/09/22 05:20:24;;;;;;;18.40;7.90;;;;;;;16.77;68.16;99833.31;79551;1295;3011604;-75
2023/09/22 05:22:52;;;;;;;16.50;7.70;;;;;;;16.77;68.15;99837.05;78486;1299;3054011;-76
2023/09/22 05:25:18;;;;;;;17.10;7.30;;;;;;;16.79;68.58;99831.60;79672;1295;3013324;-76
2023/09/22 05:27:45;;;;;;;18.80;7.20;;;;;;;16.80;68.29;99833.83;79678;1295;3011687;-75
2023/09/22 05:30:14;;;;;;;19.80;7.30;;;;;;;16.82;68.06;99834.50;78409;1300;3027120;-77
2023/09/22 05:32:42;;;;;;;18.50;7.60;;;;;;;16.87;68.38;99840.85;79564;1295;3012641;-75
2023/09/22 05:35:09;;;;;;;13.30;4.50;;;;;;;16.89;68.18;99838.59;79423;1298;3012127;-76
2023/09/22 05:37:38;;;;;;;17.10;5.30;;;;;;;17.56;66.68;99843.86;78343;1301;3052198;-76
2023/09/22 05:40:12;;;;;;;12.80;5.70;;;;;;;18.25;64.99;99837.36;79592;1298;3013504;-76
2023/09/22 05:42:42;;;;;;;21.40;5.50;;;;;;;18.47;63.67;99835.30;78343;1300;3058090;-75
2023/09/22 05:45:09;;;;;;;20.00;6.10;;;;;;;18.45;63.52;99837.23;79615;1300;3013089;-77
2023/09/22 05:47:36;;;;;;;14.00;6.10;;;;;;;18.35;63.82;99839.66;79616;1295;3012985;-76
2023/09/22 05:50:05;;;;;;;13.80;5.70;;;;;;;18.23;63.85;99846.52;78418;1295;3052907;-76
2023/09/22 05:52:32;;;;;;;23.20;6.80;;;;;;;18.17;63.87;99843.59;79758;1295;3013399;-77
2023/09/22 05:54:58;;;;;;;16.30;6.90;;;;;;;18.09;64.25;99845.46;79653;1295;3013118;-77
2023/09/22 05:57:26;;;;;;;14.60;6.60;;;;;;;18.07;64.84;99848.45;78378;1300;3056817;-75
2023/09/22 05:59:53;;;;;;;19.80;6.20;;;;;;;18.07;64.72;99849.02;79489;1296;3013040;-76
2023/09/22 06:02:20;;;;;;;20.90;7.00;;;;;;;18.05;64.88;99850.20;79717;1295;3012033;-76
2023/09/22 06:04:48;;;;;;;18.30;5.70;;;;;;;18.10;65.08;99853.90;78557;1301;3026357;-76
2023/09/22 06:07:14;;;;;;;19.80;6.50;;;;;;;18.14;65.00;99857.66;79681;1295;3012585;-75
2023/09/22 06:09:41;;;;;;;17.70;6.50;;;;;;;18.19;64.52;99858.05;79655;1295;3013230;-74
2023/09/22 06:12:08;;;;;;;18.10;6.70;;;;;;;18.23;64.38;99862.01;78621;1295;3025879;-76
2023/09/22 06:14:39;;;;;;;16.20;6.10;;;;;;;18.26;64.55;99861.92;79747;1295;3018803;-69
2023/09/22 06:17:07;;;;;;;12.40;5.80;;;;;;;18.32;64.57;99861.63;78451;1296;3049726;-76
2023/09/22 06:19:33;;;;;;;16.80;6.00;;;;;;;18.38;64.78;99867.95;79620;1298;3019022;-73
2023/09/22 06:22:00;;;;;;;16.20;6.20;;;;;;;18.43;64.74;99861.87;79597;1296;3011989;-75
2023/09/22 06:24:28;;;;;;;12.10;6.00;;;;;;;18.53;64.10;99869.19;78459;1294;3051368;-75
2023/09/22 06:26:56;;;;;;;17.80;5.60;;;;;;;18.58;63.92;99864.44;79606;1295;3013119;-76
2023/09/22 06:29:23;;;;;;;18.70;5.90;;;;;;;18.64;64.06;99866.22;79755;1295;3013535;-73
2023/09/22 06:31:51;;;;;;;14.60;6.30;;;;;;;18.70;63.62;99870.33;78591;1295;3050040;-78
2023/09/22 06:34:19;;;;;;;16.00;6.50;;;;;;;18.76;64.05;99872.42;79797;1298;3011641;-80
2023/09/22 06:36:47;;;;;;;18.70;6.70;;;;;;;18.85;63.61;99870.97;79788;1295;3011805;-80
2023/09/22 06:39:16;;;;;;;22.40;6.90;;;;;;;18.93;63.39;99876.81;78781;1301;3050129;-83
2023/09/22 06:41:43;;;;;;;18.30;6.20;;;;;;;18.99;63.03;99876.20;80088;1295;3013434;-81
2023/09/22 06:44:11;;;;;;;17.80;6.20;;;;;;;19.06;62.92;99874.63;79563;1295;3011657;-78
2023/09/22 06:46:39;;;;;;;19.80;5.90;;;;;;;19.17;62.70;99878.79;78352;1300;3049663;-79
2023/09/22 06:49:07;;;;;;;20.50;5.90;;;;;;;19.24;62.29;99877.86;79750;1300;3013666;-78
2023/09/22 06:51:36;;;;;;;17.00;5.80;;;;;;;19.32;62.30;99876.70;79799;1295;3011566;-76
2023/09/22 06:54:06;;;;;;;13.60;5.30;;;;;;;19.41;62.09;99881.20;78554;1295;3053587;-79
2023/09/22 06:56:34;;;;;;;17.60;6.10;;;;;;;19.49;61.87;99881.77;79666;1295;3013601;-79
2023/09/22 06:59:06;;;;;;;15.30;5.90;;;;;;;19.54;61.38;99882.89;79317;1294;3011371;-78
2023/09/22 07:01:33;;;;;;;17.20;5.80;;;;;;;19.60;61.33;99886.09;79753;1297;3011922;-77
2023/09/22 07:04:03;;;;;;;15.10;5.00;;;;;;;19.65;61.01;99885.42;79563;1295;3011938;-77
2023/09/22 07:06:30;;;;;;;13.60;5.40;;;;;;;19.76;60.95;99887.66;79923;1295;3011702;-78
2023/09/22 07:08:57;;;;;;;10.90;5.30;;;;;;;19.86;61.07;99893.33;79894;1295;3011656;-77
2023/09/22 07:11:25;;;;;;;18.10;5.20;;;;;;;19.95;60.84;99888.27;78482;1298;3049736;-78
2023/09/22 07:13:52;;;;;;;11.70;5.50;;;;;;;20.05;60.82;99889.23;79753;1295;3018547;-76
2023/09/22 07:16:20;;;;;;;12.60;5.40;;;;;;;20.16;60.63;99890.25;80664;1295;3011727;-76
2023/09/22 07:18:48;;;;;;;15.50;4.80;;;;;;;20.28;60.30;99889.93;79801;1295;3051114;-78
2023/09/22 07:21:14;;;;;;;16.40;4.70;;;;;;;20.42;60.13;99892.19;80979;1295;3013292;-77
2023/09/22 07:23:44;;;;;;;15.30;5.20;;;;;;;20.53;59.84;99884.92;79919;1295;3011599;-78
2023/09/22 07:26:12;;;;;;;13.30;5.50;;;;;;;20.66;59.69;99888.86;78594;1295;3053034;-77
2023/09/22 07:28:39;;;;;;;19.70;5.50;;;;;;;20.77;59.48;99887.02;79985;1295;3013396;-79
2023/09/22 07:31:12;;;;;;;17.30;5.40;;;;;;;20.87;59.02;99889.19;79957;1296;3011413;-79
2023/09/22 07:33:42;;;;;;;23.70;6.20;;;;;;;20.96;59.19;99886.89;78662;1295;3049733;-79
2023/09/22 07:36:09;;;;;;;16.30;5.20;;;;;;;21.07;58.96;99888.08;79787;1300;3011834;-79
2023/09/22 07:38:37;;;;;;;19.30;5.30;;;;;;;21.19;58.48;99887.86;79805;1300;3012113;-78
2023/09/22 07:41:05;;;;;;;14.60;5.10;;;;;;;21.29;57.83;99885.29;78537;1295;3051703;-80
2023/09/22 07:43:31;;;;;;;11.00;4.80;;;;;;;21.39;57.93;99884.08;79947;1295;3012839;-78
2023/09/22 07:46:00;;;;;;;13.00;5.40;;;;;;;21.50;57.55;99886.42;79768;1301;3011914;-75
2023/09/22 07:48:30;;;;;;;16.00;5.90;;;;;;;21.62;57.29;99890.02;78532;1301;3050927;-78
2023/09/22 07:50:58;;;;;;;19.20;6.50;;;;;;;21.72;57.27;99888.47;79788;1297;3012931;-78
2023/09/22 07:53:25;;;;;;;27.50;6.70;;;;;;;21.84;56.84;99888.34;79882;1298;3011613;-77
2023/09/22 07:55:59;;;;;;;39.50;8.20;;;;;;;21.94;56.40;99887.69;78421;1296;3051502;-77
2023/09/22 07:58:26;;;;;;;39.30;9.00;;;;;;;22.05;55.82;99891.52;80025;1295;3011584;-76
2023/09/22 08:00:54;;;;;;;42.80;9.30;;;;;;;22.14;55.50;99890.80;78783;1295;3049110;-78
2023/09/22 08:03:22;;;;;;;45.70;8.40;;;;;;;22.23;55.46;99890.25;80082;1295;3013076;-78
2023/09/22 08:05:51;;;;;;;40.30;7.90;;;;;;;22.30;54.42;99891.20;79851;1296;3011754;-76
2023/09/22 08:08:19;;;;;;;23.70;7.40;;;;;;;22.38;53.93;99885.88;78544;1295;3054640;-76
2023/09/22 08:10:46;;;;;;;27.80;7.90;;;;;;;22.42;53.52;99885.83;79616;1298;3011724;-77
2023/09/22 08:13:14;;;;;;;41.00;7.10;;;;;;;22.51;54.05;99884.90;79775;1299;3013439;-76
2023/09/22 08:15:42;;;;;;;25.80;7.70;;;;;;;22.62;53.72;99885.21;78582;1295;3049195;-79
2023/09/22 08:18:10;;;;;;;22.50;6.60;;;;;;;22.71;53.15;99877.31;79656;1301;3013801;-77
2023/09/22 08:20:37;;;;;;;26.80;6.50;;;;;;;22.81;52.73;99873.77;79645;1300;3011555;-77
2023/09/22 08:23:04;;;;;;;22.00;6.10;;;;;;;22.90;52.31;99876.58;78392;1295;3054402;-78
2023/09/22 08:25:31;;;;;;;23.40;5.70;;;;;;;23.02;52.34;99879.02;80047;1295;3013266;-76
2023/09/22 08:27:58;;;;;;;16.60;5.90;;;;;;;23.17;52.46;99870.73;79721;1301;3011662;-76
2023/09/22 08:30:26;;;;;;;21.20;6.00;;;;;;;23.28;52.07;99865.71;78481;1300;3027555;-77
2023/09/22 08:32:53;;;;;;;17.30;6.00;;;;;;;23.40;52.41;99863.95;79618;1300;3013541;-76
2023/09/22 08:35:20;;;;;;;17.00;5.70;;;;;;;23.51;51.26;99861.45;79582;1295;3011617;-78
2023/09/22 08:37:49;;;;;;;16.90;4.90;;;;;;;23.64;50.82;99862.91;78407;1300;3026260;-77
2023/09/22 08:40:16;;;;;;;15.10;4.90;;;;;;;23.77;50.53;99862.60;79853;1301;3013141;-77
2023/09/22 08:42:44;;;;;;;26.50;6.60;;;;;;;23.86;50.23;99857.33;79668;1295;3013536;-78
2023/09/22 08:45:12;;;;;;;33.40;5.70;;;;;;;23.95;50.05;99860.95;78556;1295;3049138;-78
2023/09/22 08:47:40;;;;;;;19.20;5.00;;;;;;;24.07;49.14;99860.91;79721;1299;3013677;-76
2023/09/22 08:50:06;;;;;;;21.00;5.30;;;;;;;24.21;49.23;99863.71;79839;1297;3011627;-78
2023/09/22 08:52:38;;;;;;;16.50;4.60;;;;;;;24.31;48.58;99856.80;78513;1300;3053480;-78
2023/09/22 08:55:08;;;;;;;13.70;4.10;;;;;;;24.43;48.67;99847.64;79609;1299;3013220;-76
2023/09/22 08:57:35;;;;;;;14.80;4.50;;;;;;;24.55;48.27;99851.45;78364;1297;3051059;-74
2023/09/22 09:00:12;;;;;;;13.60;3.90;;;;;;;24.67;47.79;99847.80;79599;1295;3013125;-78
2023/09/22 09:02:40;;;;;;;12.90;4.00;;;;;;;24.82;47.59;99848.25;78382;1295;3053835;-78
2023/09/22 09:05:29;;;;;;;16.10;3.90;;;;;;;24.94;47.21;99845.02;79563;1301;3013481;-74
2023/09/22 09:08:19;;;;;;;10.20;4.10;;;;;;;25.10;46.63;99840.02;78726;1300;3054017;-77
2023/09/22 09:10:48;;;;;;;12.80;4.00;;;;;;;25.09;46.65;99846.04;78458;1295;3069728;-75
2023/09/22 09:13:19;;;;;;;15.60;4.30;;;;;;;25.04;46.47;99841.40;79603;1300;3013194;-74
2023/09/22 09:15:48;;;;;;;12.10;3.70;;;;;;;24.95;46.74;99837.22;78516;1296;3055513;-75
2023/09/22 09:18:19;;;;;;;13.10;3.70;;;;;;;24.92;47.10;99840.04;79606;1295;3011388;-75
2023/09/22 09:21:05;;;;;;;14.40;4.10;;;;;;;24.93;47.10;99840.70;78384;1299;3052770;-76
2023/09/22 09:23:33;;;;;;;12.10;4.00;;;;;;;24.99;47.33;99838.41;78413;1296;3051211;-74
2023/09/22 09:25:59;;;;;;;12.40;4.40;;;;;;;25.06;47.44;99837.96;79884;1297;3012863;-78
2023/09/22 09:28:29;;;;;;;10.30;4.50;;;;;;;25.20;46.65;99835.77;79602;1295;3011632;-78
2023/09/22 09:30:59;;;;;;;10.00;4.40;;;;;;;25.39;46.20;99832.73;78398;1296;3051193;-77
2023/09/22 09:33:32;;;;;;;12.70;3.80;;;;;;;25.49;45.63;99829.52;79671;1300;3012891;-77
2023/09/22 09:36:13;;;;;;;11.50;3.80;;;;;;;25.55;45.26;99836.32;78522;1300;3049861;-79
2023/09/22 09:38:42;;;;;;;7.10;4.00;;;;;;;25.62;45.73;99834.70;78692;1295;3052365;-74
2023/09/22 09:41:08;;;;;;;7.20;3.00;;;;;;;25.75;45.42;99835.60;79747;1295;3012779;-76
2023/09/22 09:43:42;;;;;;;8.40;3.40;;;;;;;25.83;45.69;99837.17;79626;1299;3011609;-78
2023/09/22 09:46:10;;;;;;;10.00;3.90;;;;;;;25.82;45.87;99838.36;78451;1298;3068819;-72
2023/09/22 09:48:37;;;;;;;8.10;3.70;;;;;;;25.96;45.83;99837.98;79669;1295;3013159;-76
2023/09/22 09:51:04;;;;;;;11.60;3.50;;;;;;;26.10;45.12;99837.09;79635;1295;3011601;-76
2023/09/22 09:53:38;;;;;;;9.80;4.00;;;;;;;26.14;45.07;99838.90;78380;1295;3052742;-75
2023/09/22 09:56:05;;;;;;;9.60;4.10;;;;;;;26.17;44.32;99837.86;79738;1300;3012696;-77
2023/09/22 09:58:34;;;;;;;7.90;3.50;;;;;;;26.16;44.80;99835.57;78496;1298;3051848;-78
2023/09/22 10:01:07;;;;;;;11.10;3.60;;;;;;;26.11;44.46;99833.50;79541;1301;3013593;-78
2023/09/22 10:03:36;;;;;;;7.70;3.50;;;;;;;26.06;44.75;99831.46;78269;1295;3051973;-77
2023/09/22 10:06:04;;;;;;;12.80;4.10;;;;;;;26.14;44.48;99830.84;79593;1295;3011493;-74
2023/09/22 10:08:33;;;;;;;6.90;3.20;;;;;;;26.20;44.90;99831.19;78451;1301;3025821;-77
2023/09/22 10:11:05;;;;;;;8.40;3.70;;;;;;;26.18;44.99;99829.00;79526;1298;3018767;-77
2023/09/22 10:13:36;;;;;;;7.00;3.20;;;;;;;26.23;44.81;99826.52;78440;1301;3052245;-75
2023/09/22 10:16:04;;;;;;;8.50;3.70;;;;;;;26.24;44.62;99824.41;79708;1301;3011540;-78
2023/09/22 10:18:45;;;;;;;11.60;3.80;;;;;;;26.41;45.09;99824.88;78411;1301;3068420;-77
2023/09/22 10:21:29;;;;;;;10.90;3.80;;;;;;;26.50;44.68;99821.63;78165;1296;3051627;-77
2023/09/22 10:24:27;;;;;;;12.40;3.50;;;;;;;26.61;44.83;99814.55;78403;1299;3057777;-79
2023/09/22 10:27:07;;;;;;;10.60;3.50;;;;;;;26.68;43.65;99812.85;78603;1295;3048945;-77
2023/09/22 10:29:52;;;;;;;10.30;3.60;;;;;;;26.63;43.59;99807.34;78499;1295;3053336;-77
2023/09/22 10:32:25;;;;;;;7.60;4.00;;;;;;;26.33;43.87;99811.28;78204;1300;3049857;-76
2023/09/22 10:35:05;;;;;;;9.40;3.40;;;;;;;26.45;44.16;99813.41;78257;1304;3052098;-81
2023/09/22 10:37:37;;;;;;;14.60;3.70;;;;;;;26.58;43.75;99803.23;78233;1304;3051953;-73
2023/09/22 10:40:08;;;;;;;12.40;4.00;;;;;;;26.65;43.17;99804.65;79544;1297;3011479;-75
2023/09/22 10:42:43;;;;;;;9.30;3.70;;;;;;;26.65;43.09;99802.02;78435;1301;3051549;-75
2023/09/22 10:45:17;;;;;;;14.90;3.30;;;;;;;26.45;43.61;99805.61;78752;1299;3013611;-76
2023/09/22 10:47:46;;;;;;;8.90;3.60;;;;;;;26.39;43.96;99805.87;79656;1295;3011505;-78
2023/09/22 10:50:35;;;;;;;7.70;3.20;;;;;;;26.37;43.65;99803.41;78379;1296;3048731;-76
2023/09/22 10:53:04;;;;;;;9.40;3.60;;;;;;;26.40;44.00;99805.38;78338;1296;3054383;-78
2023/09/22 10:55:42;;;;;;;10.60;2.90;;;;;;;26.43;44.13;99804.89;79631;1298;3011890;-77
2023/09/22 10:58:16;;;;;;;11.90;3.00;;;;;;;26.50;44.07;99802.65;78251;1301;3052422;-77
2023/09/22 11:01:05;;;;;;;12.60;2.70;;;;;;;26.77;43.82;99802.59;79600;1296;3012650;-76
2023/09/22 11:03:35;;;;;;;9.40;2.40;;;;;;;26.70;43.33;99803.59;78304;1301;3067437;-76
2023/09/22 11:06:06;;;;;;;7.90;2.80;;;;;;;26.67;43.47;99799.45;79622;1296;3013117;-76
2023/09/22 11:08:36;;;;;;;12.70;3.00;;;;;;;26.62;43.33;99800.21;78253;1301;3057200;-78
2023/09/22 11:11:06;;;;;;;12.70;2.90;;;;;;;26.75;43.11;99796.73;79430;1303;3015410;-77
2023/09/22 11:13:35;;;;;;;10.90;3.20;;;;;;;26.80;42.78;99793.23;78424;1301;3053294;-75
2023/09/22 11:16:07;;;;;;;7.70;2.90;;;;;;;26.87;43.07;99795.92;79516;1301;3013195;-75
2023/09/22 11:18:41;;;;;;;16.50;3.00;;;;;;;27.06;42.40;99792.52;78582;1301;3052115;-75